createdAt,value
2018-08-31T00:00:35.075Z,2.50
2018-08-31T00:03:04.342Z,1.73
2018-08-31T00:05:53.319Z,2.20
2018-08-31T00:08:31.883Z,2.50
2018-08-31T00:13:16.839Z,2.13
2018-08-31T00:15:46.065Z,2.00
2018-08-31T00:18:15.501Z,2.10
2018-08-31T00:20:44.855Z,1.60
2018-08-31T00:23:14.277Z,2.23
2018-08-31T00:26:08.787Z,1.87
2018-08-31T00:28:50.071Z,1.70
2018-08-31T00:33:35.689Z,1.87
2018-08-31T00:40:23.343Z,2.17
2018-08-31T00:43:14.405Z,2.07
2018-08-31T00:45:43.944Z,1.80
2018-08-31T00:48:13.050Z,1.83
2018-08-31T00:50:42.607Z,2.17
2018-08-31T00:53:11.827Z,1.87
2018-08-31T00:55:41.065Z,2.67
2018-08-31T00:58:10.469Z,2.00
2018-08-31T01:00:39.871Z,2.53
2018-08-31T01:03:09.542Z,1.93
2018-08-31T01:05:39.105Z,2.00
2018-08-31T01:08:08.528Z,2.03
2018-08-31T01:10:37.933Z,2.23
2018-08-31T01:13:07.360Z,1.80
2018-08-31T01:15:36.660Z,1.93
2018-08-31T01:18:06.137Z,1.97
2018-08-31T01:20:35.499Z,1.83
2018-08-31T01:23:04.800Z,2.03
2018-08-31T01:25:34.475Z,1.90
2018-08-31T01:28:04.273Z,1.90
2018-08-31T01:30:33.584Z,2.30
2018-08-31T01:33:03.074Z,2.00
2018-08-31T01:35:32.645Z,2.73
2018-08-31T01:38:01.928Z,2.23
2018-08-31T01:40:31.186Z,2.10
2018-08-31T01:43:00.576Z,2.00
2018-08-31T01:45:30.135Z,2.20
2018-08-31T01:47:59.344Z,1.80
2018-08-31T01:50:28.959Z,2.13
2018-08-31T01:52:58.186Z,2.07
2018-08-31T01:55:32.240Z,2.13
2018-08-31T01:58:02.588Z,2.03
2018-08-31T02:00:31.965Z,1.90
2018-08-31T02:03:01.394Z,1.43
2018-08-31T02:05:30.662Z,2.70
2018-08-31T02:08:00.107Z,1.93
2018-08-31T02:10:29.296Z,2.23
2018-08-31T02:12:58.622Z,2.90
2018-08-31T02:15:27.806Z,2.10
2018-08-31T02:17:57.114Z,1.77
2018-08-31T02:20:26.626Z,2.10
2018-08-31T02:22:55.928Z,2.03
2018-08-31T02:25:25.116Z,1.83
2018-08-31T02:27:54.496Z,1.97
2018-08-31T02:30:23.978Z,2.20
2018-08-31T02:32:53.310Z,1.77
2018-08-31T02:35:22.618Z,1.90
2018-08-31T02:37:52.106Z,1.80
2018-08-31T02:40:21.208Z,2.00
2018-08-31T02:42:50.510Z,2.80
2018-08-31T02:45:19.795Z,2.07
2018-08-31T02:47:49.411Z,2.20
2018-08-31T02:50:18.687Z,1.90
2018-08-31T02:52:48.149Z,1.83
2018-08-31T02:55:17.445Z,2.20
2018-08-31T02:57:46.793Z,1.73
2018-08-31T03:00:16.396Z,1.77
2018-08-31T03:02:45.734Z,1.90
2018-08-31T03:05:15.107Z,2.23
2018-08-31T03:07:44.612Z,2.03
2018-08-31T03:10:14.134Z,2.63
2018-08-31T03:12:43.575Z,3.20
2018-08-31T03:15:12.997Z,2.83
2018-08-31T03:17:42.361Z,3.20
2018-08-31T03:20:11.646Z,3.10
2018-08-31T03:22:40.858Z,3.40
2018-08-31T03:25:10.195Z,3.17
2018-08-31T03:27:39.626Z,3.43
2018-08-31T03:30:08.872Z,3.37
2018-08-31T03:32:38.170Z,2.50
2018-08-31T03:35:07.486Z,2.97
2018-08-31T03:37:36.822Z,2.50
2018-08-31T03:40:06.312Z,2.43
2018-08-31T03:42:35.842Z,2.23
2018-08-31T03:45:05.536Z,2.27
2018-08-31T03:47:34.950Z,2.10
2018-08-31T03:50:04.358Z,2.10
2018-08-31T03:52:33.807Z,2.47
2018-08-31T03:55:03.045Z,2.03
2018-08-31T03:57:32.452Z,2.40
2018-08-31T04:00:01.806Z,2.60
2018-08-31T04:02:31.428Z,2.23
2018-08-31T04:05:00.590Z,2.10
2018-08-31T04:07:29.846Z,2.70
2018-08-31T04:09:59.026Z,2.37
2018-08-31T04:12:28.066Z,2.63
2018-08-31T04:14:57.314Z,2.60
2018-08-31T04:17:26.611Z,2.27
2018-08-31T04:19:55.750Z,2.10
2018-08-31T04:22:24.944Z,2.10
2018-08-31T04:24:54.305Z,2.53
2018-08-31T04:27:24.168Z,2.27
2018-08-31T04:29:53.503Z,2.20
2018-08-31T04:32:22.875Z,2.03
2018-08-31T04:34:52.614Z,2.87
2018-08-31T04:37:22.391Z,2.10
2018-08-31T04:39:52.222Z,2.03
2018-08-31T04:42:21.922Z,2.20
2018-08-31T04:44:51.838Z,2.23
2018-08-31T04:47:21.987Z,2.50
2018-08-31T04:49:52.403Z,3.30
2018-08-31T04:52:23.174Z,2.13
2018-08-31T04:54:53.845Z,2.33
2018-08-31T04:57:24.228Z,2.47
2018-08-31T04:59:54.323Z,2.83
2018-08-31T05:02:25.329Z,3.00
2018-08-31T05:04:55.552Z,2.80
2018-08-31T05:07:26.764Z,2.67
2018-08-31T05:09:56.795Z,2.47
2018-08-31T05:12:26.936Z,3.10
2018-08-31T05:14:57.425Z,3.03
2018-08-31T05:17:27.543Z,2.83
2018-08-31T05:19:57.821Z,2.70
2018-08-31T05:22:27.971Z,2.57
2018-08-31T05:24:58.948Z,3.10
2018-08-31T05:27:30.128Z,3.00
2018-08-31T05:30:00.047Z,2.87
2018-08-31T05:32:29.974Z,2.87
2018-08-31T05:35:00.189Z,2.67
2018-08-31T05:37:30.601Z,2.80
2018-08-31T05:40:01.925Z,2.87
2018-08-31T05:42:33.271Z,2.37
2018-08-31T05:45:03.901Z,2.80
2018-08-31T05:47:34.471Z,2.63
2018-08-31T05:50:05.093Z,3.20
2018-08-31T05:52:35.267Z,2.93
2018-08-31T05:55:05.673Z,3.63
2018-08-31T05:57:36.385Z,3.30
2018-08-31T06:00:07.032Z,4.43
2018-08-31T06:02:37.433Z,5.13
2018-08-31T06:05:07.351Z,4.30
2018-08-31T06:07:38.034Z,5.30
2018-08-31T06:10:08.793Z,4.60
2018-08-31T06:12:39.525Z,4.60
2018-08-31T06:15:09.971Z,3.80
2018-08-31T06:17:40.237Z,3.40
2018-08-31T06:20:10.508Z,3.27
2018-08-31T06:22:40.521Z,2.63
2018-08-31T06:25:10.537Z,2.83
2018-08-31T06:27:40.568Z,3.27
2018-08-31T06:30:10.529Z,2.93
2018-08-31T06:32:40.682Z,3.03
2018-08-31T06:35:10.987Z,2.87
2018-08-31T06:37:41.609Z,3.27
2018-08-31T06:40:12.295Z,3.63
2018-08-31T06:42:42.702Z,2.77
2018-08-31T06:45:13.231Z,2.80
2018-08-31T06:47:44.025Z,2.93
2018-08-31T06:50:15.257Z,3.97
2018-08-31T06:52:45.823Z,3.40
2018-08-31T06:55:16.617Z,3.57
2018-08-31T06:57:47.503Z,2.70
2018-08-31T07:00:17.995Z,3.97
2018-08-31T07:02:48.989Z,3.47
2018-08-31T07:05:21.167Z,3.50
2018-08-31T07:07:51.757Z,3.03
2018-08-31T07:10:22.851Z,3.60
2018-08-31T07:12:53.055Z,3.63
2018-08-31T07:15:23.699Z,3.10
2018-08-31T07:17:55.128Z,3.40
2018-08-31T07:20:25.730Z,2.87
2018-08-31T07:22:56.667Z,3.30
2018-08-31T07:25:26.755Z,3.10
2018-08-31T07:27:57.051Z,2.77
2018-08-31T07:30:27.570Z,2.83
2018-08-31T07:32:58.273Z,2.60
2018-08-31T07:35:28.788Z,3.03
2018-08-31T07:37:58.985Z,3.30
2018-08-31T07:40:30.267Z,2.30
2018-08-31T07:43:01.525Z,3.00
2018-08-31T07:45:31.859Z,2.50
2018-08-31T07:48:02.692Z,2.53
2018-08-31T07:50:33.126Z,2.40
2018-08-31T07:53:04.437Z,3.60
2018-08-31T07:55:35.786Z,2.60
2018-08-31T07:58:06.579Z,2.53
2018-08-31T08:00:37.985Z,2.40
2018-08-31T08:03:08.748Z,3.03
2018-08-31T08:05:39.484Z,2.30
2018-08-31T08:08:10.284Z,2.30
2018-08-31T08:10:40.842Z,2.70
2018-08-31T08:13:11.478Z,1.93
2018-08-31T08:15:43.258Z,2.30
2018-08-31T08:18:13.904Z,2.20
2018-08-31T08:20:45.874Z,2.80
2018-08-31T08:23:16.810Z,2.80
2018-08-31T08:25:46.786Z,2.50
2018-08-31T08:28:16.760Z,2.50
2018-08-31T08:30:48.300Z,2.73
2018-08-31T08:33:18.846Z,2.27
2018-08-31T08:35:49.124Z,2.53
2018-08-31T08:38:19.028Z,2.63
2018-08-31T08:40:51.074Z,2.33
2018-08-31T08:43:21.385Z,2.40
2018-08-31T08:45:51.799Z,2.53
2018-08-31T08:48:23.029Z,2.50
2018-08-31T08:50:53.573Z,3.53
2018-08-31T08:53:24.004Z,2.50
2018-08-31T08:55:54.254Z,1.90
2018-08-31T08:58:24.670Z,1.97
2018-08-31T09:00:54.752Z,2.33
2018-08-31T09:03:25.070Z,1.87
2018-08-31T09:05:55.243Z,2.60
2018-08-31T09:08:25.039Z,2.27
2018-08-31T09:10:54.938Z,2.13
2018-08-31T09:13:24.924Z,1.90
2018-08-31T09:15:54.704Z,1.80
2018-08-31T09:18:28.159Z,2.03
2018-08-31T09:20:58.694Z,1.90
2018-08-31T09:23:28.994Z,1.90
2018-08-31T09:26:01.918Z,2.03
2018-08-31T09:28:32.074Z,2.33
2018-08-31T09:31:02.820Z,2.97
2018-08-31T09:33:32.540Z,2.20
2018-08-31T09:36:02.762Z,2.43
2018-08-31T09:38:32.541Z,2.40
2018-08-31T09:41:02.170Z,1.93
2018-08-31T09:43:32.281Z,2.23
2018-08-31T09:46:01.589Z,2.30
2018-08-31T09:48:31.492Z,2.20
2018-08-31T09:51:01.326Z,2.33
2018-08-31T09:53:31.778Z,1.87
2018-08-31T09:56:01.554Z,1.70
2018-08-31T09:58:32.504Z,1.90
2018-08-31T10:01:07.710Z,1.90
2018-08-31T10:03:38.262Z,1.90
2018-08-31T10:06:15.697Z,2.33
2018-08-31T10:08:46.293Z,2.27
2018-08-31T10:11:17.001Z,2.10
2018-08-31T10:13:47.442Z,2.77
2018-08-31T10:16:17.552Z,1.77
2018-08-31T10:18:47.842Z,1.70
2018-08-31T10:21:18.948Z,2.10
2018-08-31T10:23:50.464Z,1.90
2018-08-31T10:26:20.340Z,2.30
2018-08-31T10:28:50.366Z,1.90
2018-08-31T10:31:20.022Z,1.53
2018-08-31T10:33:50.198Z,1.80
2018-08-31T10:36:20.952Z,2.17
2018-08-31T10:38:51.206Z,1.87
2018-08-31T10:41:21.707Z,2.03
2018-08-31T10:43:52.136Z,1.40
2018-08-31T10:46:21.916Z,1.47
2018-08-31T10:48:51.909Z,1.67
2018-08-31T10:51:22.162Z,1.57
2018-08-31T10:53:52.100Z,1.50
2018-08-31T10:56:21.960Z,1.80
2018-08-31T10:58:51.902Z,1.90
2018-08-31T11:01:22.481Z,1.97
2018-08-31T11:03:52.787Z,1.90
2018-08-31T11:06:23.546Z,1.73
2018-08-31T11:08:53.706Z,1.30
2018-08-31T11:11:23.812Z,1.87
2018-08-31T11:13:53.748Z,1.83
2018-08-31T11:16:24.253Z,1.40
2018-08-31T11:18:54.697Z,1.50
2018-08-31T11:21:25.262Z,1.93
2018-08-31T11:23:55.015Z,1.43
2018-08-31T11:26:24.794Z,2.20
2018-08-31T11:28:54.574Z,1.60
2018-08-31T11:31:23.896Z,1.60
2018-08-31T11:33:54.432Z,1.57
2018-08-31T11:36:24.747Z,1.40
2018-08-31T11:38:54.368Z,1.87
2018-08-31T11:41:23.985Z,2.17
2018-08-31T11:43:54.117Z,1.57
2018-08-31T11:46:24.209Z,2.27
2018-08-31T11:48:54.630Z,1.70
2018-08-31T11:51:24.560Z,1.50
2018-08-31T11:53:54.810Z,1.53
2018-08-31T11:56:24.834Z,1.50
2018-08-31T11:58:54.835Z,1.93
2018-08-31T12:01:25.310Z,1.87
2018-08-31T12:03:55.696Z,2.07
2018-08-31T12:06:25.869Z,1.90
2018-08-31T12:08:55.987Z,2.00
2018-08-31T12:11:26.291Z,2.40
2018-08-31T12:13:56.389Z,2.07
2018-08-31T12:16:26.433Z,1.97
2018-08-31T12:18:57.097Z,1.77
2018-08-31T12:21:26.901Z,1.97
2018-08-31T12:23:56.847Z,1.70
2018-08-31T12:26:26.982Z,1.70
2018-08-31T12:28:57.322Z,2.20
2018-08-31T12:31:28.133Z,1.90
2018-08-31T12:33:58.185Z,1.70
2018-08-31T12:36:28.277Z,1.53
2018-08-31T12:38:57.965Z,2.07
2018-08-31T12:41:28.278Z,2.00
2018-08-31T12:43:58.704Z,1.60
2018-08-31T12:46:28.737Z,1.63
2018-08-31T12:48:59.171Z,1.50
2018-08-31T12:51:29.315Z,1.40
2018-08-31T12:53:59.311Z,1.40
2018-08-31T12:56:30.781Z,1.53
2018-08-31T12:59:01.149Z,1.73
2018-08-31T13:01:31.263Z,1.30
2018-08-31T13:04:01.503Z,1.40
2018-08-31T13:06:31.803Z,2.33
2018-08-31T13:09:02.407Z,2.30
2018-08-31T13:11:32.781Z,2.07
2018-08-31T13:14:02.683Z,1.30
2018-08-31T13:16:32.671Z,1.37
2018-08-31T13:19:02.588Z,1.80
2018-08-31T13:21:32.861Z,1.40
2018-08-31T13:24:03.149Z,1.57
2018-08-31T13:26:33.388Z,1.70
2018-08-31T13:29:03.560Z,1.33
2018-08-31T13:31:34.037Z,1.37
2018-08-31T13:34:04.354Z,1.43
2018-08-31T13:36:35.756Z,1.60
2018-08-31T13:39:08.017Z,1.50
2018-08-31T13:41:39.203Z,1.43
2018-08-31T13:44:09.880Z,1.60
2018-08-31T13:46:40.207Z,1.57
2018-08-31T13:49:10.206Z,1.77
2018-08-31T13:51:40.098Z,1.63
2018-08-31T13:54:09.562Z,1.80
2018-08-31T13:56:40.319Z,1.47
2018-08-31T13:59:11.072Z,1.50
2018-08-31T14:01:41.905Z,1.77
2018-08-31T14:04:12.593Z,1.50
2018-08-31T14:06:43.367Z,1.73
2018-08-31T14:09:14.094Z,1.70
2018-08-31T14:11:45.772Z,1.47
2018-08-31T14:14:15.825Z,1.67
2018-08-31T14:16:46.525Z,2.30
2018-08-31T14:19:18.032Z,1.87
2018-08-31T14:21:48.591Z,1.90
2018-08-31T14:24:18.995Z,1.43
2018-08-31T14:26:49.106Z,1.70
2018-08-31T14:29:19.385Z,1.90
2018-08-31T14:31:50.497Z,1.43
2018-08-31T14:34:21.364Z,1.60
2018-08-31T14:36:51.807Z,1.80
2018-08-31T14:39:22.084Z,1.70
2018-08-31T14:41:52.443Z,1.80
2018-08-31T14:44:22.657Z,1.57
2018-08-31T14:46:52.811Z,1.50
2018-08-31T14:49:22.850Z,1.70
2018-08-31T14:51:53.362Z,1.70
2018-08-31T14:54:23.350Z,1.53
2018-08-31T14:56:54.042Z,1.67
2018-08-31T14:59:24.410Z,1.83
2018-08-31T15:01:56.254Z,1.60
2018-08-31T15:04:30.141Z,1.80
2018-08-31T15:07:00.233Z,1.90
2018-08-31T15:09:30.470Z,2.10
2018-08-31T15:12:01.760Z,1.70
2018-08-31T15:14:32.273Z,1.77
2018-08-31T15:17:02.690Z,1.40
2018-08-31T15:19:32.644Z,1.50
2018-08-31T15:22:02.749Z,2.17
2018-08-31T15:24:32.891Z,1.63
2018-08-31T15:27:03.903Z,1.50
2018-08-31T15:29:34.269Z,1.80
2018-08-31T15:32:05.187Z,1.60
2018-08-31T15:34:35.556Z,1.53
2018-08-31T15:37:05.455Z,1.40
2018-08-31T15:39:35.911Z,1.50
2018-08-31T15:42:05.849Z,1.80
2018-08-31T15:44:36.302Z,2.07
2018-08-31T15:47:07.288Z,1.90
2018-08-31T15:49:37.110Z,1.67
2018-08-31T15:52:08.219Z,1.57
2018-08-31T15:54:38.381Z,1.30
2018-08-31T15:57:09.098Z,1.47
2018-08-31T15:59:39.526Z,1.23
2018-08-31T16:02:10.156Z,1.67
2018-08-31T16:04:40.970Z,1.50
2018-08-31T16:07:11.408Z,1.77
2018-08-31T16:09:41.728Z,1.70
2018-08-31T16:12:12.228Z,1.77
2018-08-31T16:14:43.116Z,1.47
2018-08-31T16:17:14.167Z,1.60
2018-08-31T16:19:44.306Z,1.53
2018-08-31T16:22:15.450Z,1.63
2018-08-31T16:24:46.207Z,1.57
2018-08-31T16:27:16.993Z,1.30
2018-08-31T16:29:47.780Z,1.10
2018-08-31T16:32:17.873Z,1.20
2018-08-31T16:34:48.156Z,1.40
2018-08-31T16:37:19.293Z,1.57
2018-08-31T16:39:50.870Z,1.37
2018-08-31T16:42:21.856Z,1.60
2018-08-31T16:44:52.140Z,1.37
2018-08-31T16:47:22.426Z,1.70
2018-08-31T16:49:52.950Z,1.37
2018-08-31T16:52:23.386Z,1.23
2018-08-31T16:54:54.124Z,1.50
2018-08-31T16:57:25.454Z,1.20
2018-08-31T16:59:55.904Z,1.57
2018-08-31T17:02:35.400Z,1.10
2018-08-31T17:05:07.903Z,1.93
2018-08-31T17:07:38.436Z,1.53
2018-08-31T17:10:09.041Z,1.63
2018-08-31T17:12:40.462Z,1.57
2018-08-31T17:15:11.055Z,2.03
2018-08-31T17:17:41.565Z,1.40
2018-08-31T17:20:13.120Z,1.70
2018-08-31T17:22:43.356Z,1.27
2018-08-31T17:25:14.070Z,1.30
2018-08-31T17:27:57.571Z,1.80
2018-08-31T17:30:28.078Z,1.43
2018-08-31T17:33:03.974Z,2.03
2018-08-31T17:35:40.422Z,1.50
2018-08-31T17:38:10.496Z,1.37
2018-08-31T17:40:40.695Z,2.00
2018-08-31T17:43:11.687Z,1.27
2018-08-31T17:45:45.312Z,1.60
2018-08-31T17:48:19.286Z,1.50
2018-08-31T17:50:49.531Z,1.97
2018-08-31T17:53:19.844Z,1.93
2018-08-31T17:55:50.430Z,1.93
2018-08-31T17:58:21.062Z,1.93
2018-08-31T18:00:51.568Z,2.40
2018-08-31T18:03:21.603Z,1.80
2018-08-31T18:05:51.434Z,2.00
2018-08-31T18:08:21.616Z,2.00
2018-08-31T18:10:51.218Z,1.83
2018-08-31T18:13:21.144Z,1.90
2018-08-31T18:15:51.007Z,2.27
2018-08-31T18:18:20.044Z,2.40
2018-08-31T18:20:49.291Z,2.03
2018-08-31T18:23:18.625Z,2.07
2018-08-31T18:25:48.127Z,1.97
2018-08-31T18:28:17.522Z,1.77
2018-08-31T18:30:46.990Z,2.10
2018-08-31T18:33:16.694Z,2.00
2018-08-31T18:35:46.018Z,1.73
2018-08-31T18:38:15.136Z,2.00
2018-08-31T18:40:44.278Z,1.93
2018-08-31T18:43:13.534Z,1.87
2018-08-31T18:45:43.114Z,1.93
2018-08-31T18:48:12.600Z,2.33
2018-08-31T18:50:42.179Z,2.17
2018-08-31T18:53:11.387Z,2.27
2018-08-31T18:55:42.281Z,2.17
2018-08-31T18:58:11.923Z,2.40
2018-08-31T19:00:41.273Z,2.50
2018-08-31T19:03:11.145Z,2.80
2018-08-31T19:05:40.689Z,2.10
2018-08-31T19:08:10.549Z,2.33
2018-08-31T19:10:40.039Z,2.63
2018-08-31T19:13:09.363Z,2.60
2018-08-31T19:15:39.195Z,2.47
2018-08-31T19:18:08.693Z,2.50
2018-08-31T19:20:39.289Z,2.57
2018-08-31T19:23:09.241Z,2.70
2018-08-31T19:25:38.551Z,2.67
2018-08-31T19:28:08.398Z,2.90
2018-08-31T19:30:38.687Z,2.57
2018-08-31T19:33:08.065Z,2.73
2018-08-31T19:35:38.141Z,3.00
2018-08-31T19:38:07.700Z,3.13
2018-08-31T19:40:37.250Z,3.20
2018-08-31T19:43:06.641Z,3.17
2018-08-31T19:45:37.230Z,2.73
2018-08-31T19:48:06.640Z,2.60
2018-08-31T19:50:36.675Z,3.47
2018-08-31T19:53:06.641Z,2.80
2018-08-31T19:55:36.768Z,2.77
2018-08-31T19:58:06.650Z,2.43
2018-08-31T20:00:36.933Z,2.83
2018-08-31T20:03:06.658Z,3.23
2018-08-31T20:05:36.691Z,3.00
2018-08-31T20:08:06.691Z,2.87
2018-08-31T20:10:37.111Z,2.57
2018-08-31T20:13:07.036Z,3.00
2018-08-31T20:15:37.149Z,2.57
2018-08-31T20:18:07.175Z,2.40
2018-08-31T20:20:40.268Z,2.17
2018-08-31T20:23:10.201Z,2.20
2018-08-31T20:25:40.455Z,2.50
2018-08-31T20:28:10.308Z,2.33
2018-08-31T20:30:40.170Z,2.07
2018-08-31T20:33:09.979Z,1.90
2018-08-31T20:35:39.521Z,1.93
2018-08-31T20:38:09.531Z,1.73
2018-08-31T20:40:42.195Z,2.37
2018-08-31T20:43:12.755Z,2.00
2018-08-31T20:45:44.019Z,1.83
2018-08-31T20:48:14.537Z,1.67
2018-08-31T20:50:44.593Z,2.27
2018-08-31T20:53:14.108Z,1.97
2018-08-31T20:55:43.680Z,1.67
2018-08-31T20:58:13.615Z,1.80
2018-08-31T21:00:43.830Z,1.70
2018-08-31T21:03:13.739Z,2.07
2018-08-31T21:05:43.585Z,1.67
2018-08-31T21:08:13.499Z,2.50
2018-08-31T21:10:43.737Z,1.87
2018-08-31T21:13:14.366Z,1.53
2018-08-31T21:15:44.329Z,1.70
2018-08-31T21:18:14.139Z,1.70
2018-08-31T21:20:44.152Z,2.17
2018-08-31T21:23:14.173Z,1.90
2018-08-31T21:25:44.610Z,2.23
2018-08-31T21:28:14.408Z,1.50
2018-08-31T21:30:45.053Z,1.90
2018-08-31T21:33:15.731Z,2.57
2018-08-31T21:35:45.751Z,1.70
2018-08-31T21:38:16.287Z,1.73
2018-08-31T21:40:46.259Z,1.83
2018-08-31T21:43:16.113Z,1.83
2018-08-31T21:45:46.547Z,1.60
2018-08-31T21:48:16.801Z,2.10
2018-08-31T21:50:46.689Z,2.03
2018-08-31T21:53:16.739Z,1.70
2018-08-31T21:55:46.504Z,2.23
2018-08-31T21:58:16.273Z,2.33
2018-08-31T22:00:45.995Z,1.73
2018-08-31T22:03:17.108Z,2.10
2018-08-31T22:05:48.757Z,1.87
2018-08-31T22:08:18.970Z,2.50
2018-08-31T22:10:49.695Z,1.83
2018-08-31T22:13:19.545Z,2.00
2018-08-31T22:15:49.555Z,2.13
2018-08-31T22:18:19.791Z,2.50
2018-08-31T22:20:49.471Z,2.60
2018-08-31T22:23:19.653Z,2.30
2018-08-31T22:25:50.681Z,2.00
2018-08-31T22:28:20.619Z,1.73
2018-08-31T22:30:51.531Z,2.13
2018-08-31T22:33:21.273Z,2.43
2018-08-31T22:35:51.675Z,2.53
2018-08-31T22:38:21.363Z,2.40
2018-08-31T22:40:51.115Z,2.17
2018-08-31T22:43:24.945Z,3.00
2018-08-31T22:45:54.762Z,2.23
2018-08-31T22:48:24.737Z,2.30
2018-08-31T22:50:54.755Z,2.03
2018-08-31T22:53:24.114Z,2.30
2018-08-31T22:55:53.815Z,2.57
2018-08-31T22:58:23.731Z,2.30
2018-08-31T23:00:53.565Z,2.30
2018-08-31T23:03:23.811Z,2.50
2018-08-31T23:05:54.635Z,2.40
2018-08-31T23:08:24.563Z,2.53
2018-08-31T23:10:54.393Z,2.70
2018-08-31T23:13:24.271Z,2.60
2018-08-31T23:15:53.711Z,2.60
2018-08-31T23:18:23.794Z,2.53
2018-08-31T23:20:54.348Z,2.37
2018-08-31T23:23:32.935Z,2.73
2018-08-31T23:26:02.925Z,2.70
2018-08-31T23:28:32.405Z,1.93
2018-08-31T23:31:02.278Z,2.17
2018-08-31T23:33:31.691Z,2.07
2018-08-31T23:36:01.226Z,2.23
2018-08-31T23:38:31.629Z,2.30
2018-08-31T23:41:01.204Z,2.23
2018-08-31T23:43:31.095Z,2.10
2018-08-31T23:46:01.177Z,3.00
2018-08-31T23:48:31.448Z,2.20
2018-08-31T23:51:01.928Z,2.03
2018-08-31T23:53:31.914Z,2.27
2018-08-31T23:56:02.167Z,2.07
2018-08-31T23:58:31.984Z,1.90
